Time;durP1;ratioP1;P1;durP2;ratioP2;P2;SDS_P1;SDS_P2;PMS_P1;PMS_P2;Temp;Humidity;BMP_temperature;BMP_pressure;BME280_temperature;BME280_humidity;BME280_pressure;Samples;Min_cycle;Max_cycle;Signal;HPM_P1;HPM_P2
2022/03/09 00:00:57;;;;;;;5.17;3.70;;;;;;;;;;4890491;29;20233;-72
2022/03/09 00:03:25;;;;;;;5.37;3.50;;;;;;;;;;4897589;29;20220;-71
2022/03/09 00:05:53;;;;;;;5.13;4.10;;;;;;;;;;4883605;29;20236;-71
2022/03/09 00:08:19;;;;;;;4.27;3.77;;;;;;;;;;4901875;29;20220;-72
2022/03/09 00:10:47;;;;;;;5.57;3.67;;;;;;;;;;4905028;29;20238;-73
2022/03/09 00:13:13;;;;;;;8.07;5.40;;;;;;;;;;4867197;29;20238;-73
2022/03/09 00:15:41;;;;;;;4.73;3.80;;;;;;;;;;4892368;29;20233;-72
2022/03/09 00:18:06;;;;;;;5.10;3.87;;;;;;;;;;4898165;29;20291;-72
2022/03/09 00:20:33;;;;;;;6.20;3.60;;;;;;;;;;4896635;29;20319;-72
2022/03/09 00:23:01;;;;;;;5.97;4.23;;;;;;;;;;4914574;29;20330;-72
2022/03/09 00:25:26;;;;;;;6.70;4.30;;;;;;;;;;4878144;29;20259;-72
2022/03/09 00:27:52;;;;;;;6.20;3.70;;;;;;;;;;4912098;29;20260;-72
2022/03/09 00:30:17;;;;;;;5.10;4.20;;;;;;;;;;4867122;29;20286;-73
2022/03/09 00:32:45;;;;;;;5.37;3.90;;;;;;;;;;4896988;29;20221;-72
2022/03/09 00:35:11;;;;;;;4.20;3.43;;;;;;;;;;4896710;29;20224;-72
2022/03/09 00:37:41;;;;;;;5.40;3.63;;;;;;;;;;4874821;29;20232;-72
2022/03/09 00:40:07;;;;;;;5.33;3.97;;;;;;;;;;4905610;29;20235;-72
2022/03/09 00:42:36;;;;;;;5.30;3.50;;;;;;;;;;4889066;29;20232;-71
2022/03/09 00:45:02;;;;;;;4.47;4.07;;;;;;;;;;4897676;29;20232;-73
2022/03/09 00:47:30;;;;;;;7.07;3.93;;;;;;;;;;4881959;29;20247;-72
2022/03/09 00:49:58;;;;;;;5.60;3.90;;;;;;;;;;4898005;29;20722;-72
2022/03/09 00:52:26;;;;;;;6.07;4.07;;;;;;;;;;4890067;29;20774;-72
2022/03/09 00:54:51;;;;;;;5.33;3.90;;;;;;;;;;4878566;29;20232;-72
2022/03/09 00:57:19;;;;;;;7.10;3.70;;;;;;;;;;4913858;29;20222;-72
2022/03/09 00:59:47;;;;;;;6.93;3.70;;;;;;;;;;4865611;29;20363;-72
2022/03/09 01:02:15;;;;;;;5.80;3.93;;;;;;;;;;4896844;29;20700;-73
2022/03/09 01:04:40;;;;;;;5.97;3.67;;;;;;;;;;4911854;29;20899;-72
2022/03/09 01:07:08;;;;;;;4.50;3.50;;;;;;;;;;4865600;29;20286;-72
2022/03/09 01:09:33;;;;;;;4.70;3.63;;;;;;;;;;4866601;29;20236;-73
2022/03/09 01:12:01;;;;;;;4.83;3.10;;;;;;;;;;4912733;29;20249;-72
2022/03/09 01:14:31;;;;;;;3.93;3.10;;;;;;;;;;4881754;29;20232;-72
2022/03/09 01:16:59;;;;;;;5.33;3.60;;;;;;;;;;4880616;29;20671;-72
2022/03/09 01:19:26;;;;;;;5.07;3.97;;;;;;;;;;4913220;29;20255;-72
2022/03/09 01:21:54;;;;;;;5.67;3.73;;;;;;;;;;4881516;29;20758;-72
2022/03/09 01:24:23;;;;;;;5.60;4.10;;;;;;;;;;4881507;29;20234;-72
2022/03/09 01:26:48;;;;;;;7.17;3.80;;;;;;;;;;4892401;29;20768;-72
2022/03/09 01:29:14;;;;;;;5.17;3.87;;;;;;;;;;4881135;29;20253;-71
2022/03/09 01:31:40;;;;;;;4.70;3.80;;;;;;;;;;4912668;29;20247;-71
2022/03/09 01:34:05;;;;;;;5.97;3.90;;;;;;;;;;4882450;29;20280;-72
2022/03/09 01:36:31;;;;;;;4.23;3.43;;;;;;;;;;4905966;29;20235;-72
2022/03/09 01:38:56;;;;;;;5.97;3.77;;;;;;;;;;4914907;29;20234;-72
2022/03/09 01:41:24;;;;;;;5.60;4.00;;;;;;;;;;4913858;29;20223;-72
2022/03/09 01:44:11;;;;;;;5.13;3.80;;;;;;;;;;4889582;29;20353;-72
2022/03/09 01:46:39;;;;;;;5.43;3.97;;;;;;;;;;4879896;29;20328;-71
2022/03/09 01:49:09;;;;;;;8.13;4.00;;;;;;;;;;4889338;29;20283;-71
2022/03/09 01:51:37;;;;;;;6.10;3.80;;;;;;;;;;4878296;29;20232;-72
2022/03/09 01:54:03;;;;;;;5.67;3.30;;;;;;;;;;4874873;29;20734;-72
2022/03/09 01:56:28;;;;;;;5.03;3.73;;;;;;;;;;4889826;29;20731;-71
2022/03/09 01:58:59;;;;;;;5.00;3.57;;;;;;;;;;4896628;29;20232;-72
2022/03/09 02:01:24;;;;;;;4.60;3.53;;;;;;;;;;4900296;29;20235;-71
2022/03/09 02:03:49;;;;;;;6.33;3.93;;;;;;;;;;4877614;29;20306;-73
2022/03/09 02:06:20;;;;;;;4.13;3.40;;;;;;;;;;4884399;29;20232;-72
2022/03/09 02:11:33;;;;;;;5.30;3.40;;;;;;;;;;4905452;29;20247;-72
2022/03/09 02:14:00;;;;;;;4.27;3.43;;;;;;;;;;4881595;29;20713;-71
2022/03/09 02:16:26;;;;;;;4.57;3.43;;;;;;;;;;4900168;29;20231;-72
2022/03/09 02:18:54;;;;;;;4.27;3.23;;;;;;;;;;4898392;29;20793;-72
2022/03/09 02:21:20;;;;;;;4.33;3.30;;;;;;;;;;4867294;29;20221;-72
2022/03/09 02:23:48;;;;;;;4.57;3.67;;;;;;;;;;4879923;29;20275;-72
2022/03/09 02:26:13;;;;;;;6.17;3.07;;;;;;;;;;4883119;29;20267;-72
2022/03/09 02:28:40;;;;;;;4.53;3.60;;;;;;;;;;4894282;29;20255;-72
2022/03/09 02:31:05;;;;;;;4.60;3.37;;;;;;;;;;4879224;29;20231;-72
2022/03/09 02:33:33;;;;;;;5.13;3.73;;;;;;;;;;4886044;29;20232;-72
2022/03/09 02:35:59;;;;;;;5.57;3.30;;;;;;;;;;4860829;29;20762;-72
2022/03/09 02:38:27;;;;;;;6.77;3.73;;;;;;;;;;4890907;29;20236;-72
2022/03/09 02:40:52;;;;;;;5.13;3.50;;;;;;;;;;4899672;29;20224;-71
2022/03/09 02:43:17;;;;;;;4.33;3.53;;;;;;;;;;4920316;29;20254;-72
2022/03/09 02:45:43;;;;;;;6.10;3.63;;;;;;;;;;4870727;29;20292;-72
2022/03/09 02:48:08;;;;;;;4.03;3.33;;;;;;;;;;4868656;29;20310;-72
2022/03/09 02:50:34;;;;;;;4.77;3.47;;;;;;;;;;4876319;29;20255;-72
2022/03/09 02:52:59;;;;;;;6.10;3.77;;;;;;;;;;4882349;29;20338;-72
2022/03/09 02:55:28;;;;;;;4.90;3.70;;;;;;;;;;4888966;29;20248;-72
2022/03/09 02:57:53;;;;;;;4.50;3.47;;;;;;;;;;4884831;29;20718;-71
2022/03/09 03:00:21;;;;;;;3.83;3.43;;;;;;;;;;4915917;29;20254;-72
2022/03/09 03:02:47;;;;;;;3.80;3.40;;;;;;;;;;4914914;29;20283;-72
2022/03/09 03:05:13;;;;;;;4.37;3.43;;;;;;;;;;4906843;29;20323;-71
2022/03/09 03:07:40;;;;;;;6.13;3.67;;;;;;;;;;4900128;29;20231;-73
2022/03/09 03:10:10;;;;;;;4.40;3.67;;;;;;;;;;4915114;29;20232;-72
2022/03/09 03:12:38;;;;;;;3.83;3.33;;;;;;;;;;4894684;29;20229;-72
2022/03/09 03:15:05;;;;;;;5.07;3.63;;;;;;;;;;4876077;29;20216;-73
2022/03/09 03:17:34;;;;;;;5.57;3.70;;;;;;;;;;4881677;29;20320;-72
2022/03/09 03:20:05;;;;;;;6.40;3.47;;;;;;;;;;4917030;29;20677;-72
2022/03/09 03:22:30;;;;;;;6.23;4.30;;;;;;;;;;4899491;29;20227;-72
2022/03/09 03:24:56;;;;;;;5.23;4.00;;;;;;;;;;4885887;29;20219;-72
2022/03/09 03:27:24;;;;;;;5.33;4.20;;;;;;;;;;4898475;29;22246;-71
2022/03/09 03:29:52;;;;;;;6.67;3.70;;;;;;;;;;4898239;29;20216;-72
2022/03/09 03:32:20;;;;;;;4.27;3.40;;;;;;;;;;4880790;29;20646;-72
2022/03/09 03:34:45;;;;;;;4.33;3.70;;;;;;;;;;4914465;29;20239;-72
2022/03/09 03:37:11;;;;;;;5.37;4.00;;;;;;;;;;4915287;29;20703;-72
2022/03/09 03:39:41;;;;;;;5.70;4.33;;;;;;;;;;4914710;29;20239;-72
2022/03/09 03:42:06;;;;;;;4.13;3.60;;;;;;;;;;4913891;29;20232;-72
2022/03/09 03:44:32;;;;;;;5.73;3.67;;;;;;;;;;4915456;29;20231;-72
2022/03/09 03:46:58;;;;;;;4.50;3.77;;;;;;;;;;4897922;29;20243;-72
2022/03/09 03:49:23;;;;;;;5.60;3.70;;;;;;;;;;4892017;29;20393;-72
2022/03/09 03:51:49;;;;;;;6.10;4.10;;;;;;;;;;4881082;29;20303;-72
2022/03/09 03:54:19;;;;;;;6.27;4.03;;;;;;;;;;4890190;29;20261;-71
2022/03/09 03:56:46;;;;;;;3.90;3.50;;;;;;;;;;4888421;29;20654;-71
2022/03/09 03:59:13;;;;;;;7.67;3.87;;;;;;;;;;4875575;29;20220;-72
2022/03/09 04:01:44;;;;;;;4.23;3.70;;;;;;;;;;4897674;29;20235;-72
2022/03/09 04:04:09;;;;;;;4.43;3.50;;;;;;;;;;4867581;29;20224;-71
2022/03/09 04:06:34;;;;;;;4.80;3.57;;;;;;;;;;4878905;29;20246;-71
2022/03/09 04:09:00;;;;;;;7.40;3.60;;;;;;;;;;4897706;29;20710;-71
2022/03/09 04:11:26;;;;;;;5.27;3.87;;;;;;;;;;4895430;29;20223;-71
2022/03/09 04:13:51;;;;;;;8.70;6.00;;;;;;;;;;4877476;29;20238;-71
2022/03/09 04:16:19;;;;;;;4.40;4.00;;;;;;;;;;4905723;29;20742;-71
2022/03/09 04:18:45;;;;;;;5.57;3.67;;;;;;;;;;4898220;29;20224;-71
2022/03/09 04:21:10;;;;;;;3.93;3.50;;;;;;;;;;4918614;29;20232;-72
2022/03/09 04:23:36;;;;;;;4.13;3.40;;;;;;;;;;4894682;29;20608;-72
2022/03/09 04:26:06;;;;;;;4.70;3.47;;;;;;;;;;4897443;29;20239;-71
2022/03/09 04:28:32;;;;;;;4.53;3.60;;;;;;;;;;4888220;29;20265;-71
2022/03/09 04:30:59;;;;;;;4.67;3.77;;;;;;;;;;4925956;29;20309;-71
2022/03/09 04:33:25;;;;;;;4.70;3.70;;;;;;;;;;4878635;29;20263;-71
2022/03/09 04:35:50;;;;;;;5.83;3.80;;;;;;;;;;4888828;29;20235;-72
2022/03/09 04:38:16;;;;;;;7.40;3.93;;;;;;;;;;4865882;29;20316;-72
2022/03/09 04:40:41;;;;;;;5.80;3.63;;;;;;;;;;4889095;29;20303;-71
2022/03/09 04:43:07;;;;;;;9.33;6.40;;;;;;;;;;4867366;29;20224;-71
2022/03/09 04:45:35;;;;;;;9.83;7.00;;;;;;;;;;4901491;29;20236;-73
2022/03/09 04:48:00;;;;;;;8.53;5.77;;;;;;;;;;4893117;29;20233;-71
2022/03/09 04:50:28;;;;;;;9.00;5.80;;;;;;;;;;4929763;29;20315;-71
2022/03/09 04:52:56;;;;;;;4.80;4.20;;;;;;;;;;4888799;29;20600;-71
2022/03/09 04:55:24;;;;;;;6.13;4.07;;;;;;;;;;4887950;29;20240;-72
2022/03/09 04:57:49;;;;;;;3.93;3.53;;;;;;;;;;4885551;29;20225;-72
2022/03/09 05:00:15;;;;;;;4.87;3.33;;;;;;;;;;4875654;29;20228;-72
2022/03/09 05:02:41;;;;;;;5.23;3.50;;;;;;;;;;4877432;29;20232;-72
2022/03/09 05:05:08;;;;;;;4.73;4.00;;;;;;;;;;4898106;29;20607;-72
2022/03/09 05:07:40;;;;;;;4.17;3.40;;;;;;;;;;4873189;29;20243;-71
2022/03/09 05:10:07;;;;;;;6.20;3.73;;;;;;;;;;4879123;29;20683;-71
2022/03/09 05:12:35;;;;;;;5.27;3.70;;;;;;;;;;4896478;29;20247;-71
2022/03/09 05:15:03;;;;;;;5.10;4.20;;;;;;;;;;4881205;29;20227;-71
2022/03/09 05:17:32;;;;;;;5.70;3.43;;;;;;;;;;4888673;29;20251;-71
2022/03/09 05:19:59;;;;;;;6.80;3.90;;;;;;;;;;4897910;29;20220;-71
2022/03/09 05:22:25;;;;;;;4.30;3.60;;;;;;;;;;4895272;29;20232;-71
2022/03/09 05:24:50;;;;;;;5.57;3.67;;;;;;;;;;4914114;29;20236;-72
2022/03/09 05:27:18;;;;;;;3.90;3.50;;;;;;;;;;4891123;29;20773;-70
2022/03/09 05:29:44;;;;;;;3.93;3.53;;;;;;;;;;4886097;29;20227;-71
2022/03/09 05:32:09;;;;;;;5.80;3.50;;;;;;;;;;4922852;29;20701;-71
2022/03/09 05:34:35;;;;;;;5.73;4.13;;;;;;;;;;4882490;29;20234;-72
2022/03/09 05:37:00;;;;;;;7.13;3.80;;;;;;;;;;4920651;29;20730;-71
2022/03/09 05:39:30;;;;;;;6.97;3.83;;;;;;;;;;4898960;29;20232;-71
2022/03/09 05:41:58;;;;;;;6.13;3.90;;;;;;;;;;4880226;29;20220;-71
2022/03/09 05:44:24;;;;;;;4.50;3.47;;;;;;;;;;4892793;29;20232;-72
2022/03/09 05:46:50;;;;;;;5.40;4.03;;;;;;;;;;4895860;29;20375;-70
2022/03/09 05:49:17;;;;;;;5.87;3.80;;;;;;;;;;4916244;29;20219;-70
2022/03/09 05:51:43;;;;;;;7.33;3.83;;;;;;;;;;4901690;29;20228;-71
2022/03/09 05:54:11;;;;;;;5.77;4.07;;;;;;;;;;4863817;29;20224;-71
2022/03/09 05:56:39;;;;;;;4.77;3.80;;;;;;;;;;4882323;29;20235;-71
2022/03/09 05:59:07;;;;;;;4.37;3.60;;;;;;;;;;4868576;29;20242;-72
2022/03/09 06:01:35;;;;;;;5.10;3.97;;;;;;;;;;4893866;29;20220;-71
2022/03/09 06:04:04;;;;;;;5.67;3.87;;;;;;;;;;4903535;29;20260;-70
2022/03/09 06:06:30;;;;;;;3.83;3.47;;;;;;;;;;4887151;29;20238;-70
2022/03/09 06:08:56;;;;;;;7.40;4.33;;;;;;;;;;4919574;29;20258;-71
2022/03/09 06:11:21;;;;;;;5.93;3.97;;;;;;;;;;4899951;29;20690;-72
2022/03/09 06:13:50;;;;;;;5.30;4.23;;;;;;;;;;4885910;29;20348;-71
2022/03/09 06:16:22;;;;;;;4.30;3.70;;;;;;;;;;4900133;29;20258;-72
2022/03/09 06:18:49;;;;;;;4.13;3.60;;;;;;;;;;4884407;29;20235;-72
2022/03/09 06:21:18;;;;;;;5.53;3.90;;;;;;;;;;4913017;29;20220;-71
2022/03/09 06:23:44;;;;;;;4.93;3.60;;;;;;;;;;4882127;29;20285;-73
2022/03/09 06:26:12;;;;;;;5.23;4.17;;;;;;;;;;4917809;29;20250;-73
2022/03/09 06:28:38;;;;;;;4.33;3.80;;;;;;;;;;4935180;29;20303;-73
2022/03/09 06:31:04;;;;;;;5.73;3.90;;;;;;;;;;4932212;29;20300;-72
2022/03/09 06:33:32;;;;;;;5.03;3.77;;;;;;;;;;4890211;29;20754;-70
2022/03/09 06:35:58;;;;;;;5.10;3.97;;;;;;;;;;4914860;29;20291;-72
2022/03/09 06:38:26;;;;;;;5.00;3.70;;;;;;;;;;4928533;29;20224;-72
2022/03/09 06:40:54;;;;;;;5.20;3.50;;;;;;;;;;4911959;29;20324;-72
2022/03/09 06:43:20;;;;;;;4.70;3.67;;;;;;;;;;4935538;29;20227;-73
2022/03/09 06:45:48;;;;;;;14.60;7.00;;;;;;;;;;4925829;29;20265;-73
2022/03/09 06:48:13;;;;;;;9.27;6.10;;;;;;;;;;4900438;29;20276;-72
2022/03/09 06:50:41;;;;;;;26.03;14.80;;;;;;;;;;4916396;29;20232;-72
2022/03/09 06:53:11;;;;;;;7.30;5.07;;;;;;;;;;4925713;29;20216;-72
2022/03/09 06:55:37;;;;;;;29.70;16.67;;;;;;;;;;4887434;29;20638;-71
2022/03/09 06:58:03;;;;;;;6.87;5.33;;;;;;;;;;4873606;29;20220;-72
2022/03/09 07:00:31;;;;;;;5.83;3.80;;;;;;;;;;4878174;29;20232;-72
2022/03/09 07:02:59;;;;;;;5.17;3.93;;;;;;;;;;4901009;29;20235;-72
2022/03/09 07:05:26;;;;;;;4.33;3.60;;;;;;;;;;4863333;29;20249;-73
2022/03/09 07:07:59;;;;;;;9.40;6.47;;;;;;;;;;4916027;29;20231;-75
2022/03/09 07:10:30;;;;;;;7.40;4.40;;;;;;;;;;4896354;29;20255;-74
2022/03/09 07:12:59;;;;;;;6.50;4.30;;;;;;;;;;4919638;29;20291;-75
2022/03/09 07:15:36;;;;;;;4.90;3.80;;;;;;;;;;4922436;29;20240;-75
2022/03/09 07:18:02;;;;;;;27.77;15.13;;;;;;;;;;4918822;29;20235;-73
2022/03/09 07:20:28;;;;;;;44.43;27.13;;;;;;;;;;4902179;29;20250;-73
2022/03/09 07:22:54;;;;;;;29.43;17.20;;;;;;;;;;4899228;29;20224;-73
2022/03/09 07:25:31;;;;;;;7.07;5.63;;;;;;;;;;4876924;29;20228;-75
2022/03/09 07:28:06;;;;;;;18.87;11.80;;;;;;;;;;4887748;29;20228;-73
2022/03/09 07:30:40;;;;;;;27.10;14.23;;;;;;;;;;4908542;29;20228;-74
2022/03/09 07:33:18;;;;;;;7.70;5.43;;;;;;;;;;4895008;29;20290;-73
2022/03/09 07:35:45;;;;;;;13.17;7.83;;;;;;;;;;4869622;29;20723;-72
2022/03/09 07:38:11;;;;;;;10.07;6.67;;;;;;;;;;4867080;29;20360;-73
2022/03/09 07:40:37;;;;;;;130.80;57.40;;;;;;;;;;4883144;29;20841;-72
2022/03/09 07:43:02;;;;;;;77.07;36.03;;;;;;;;;;4890016;29;20225;-72
2022/03/09 07:45:33;;;;;;;7.30;6.57;;;;;;;;;;4900836;29;20233;-72
2022/03/09 07:47:59;;;;;;;4.83;3.80;;;;;;;;;;4895155;29;20224;-71
2022/03/09 07:50:24;;;;;;;5.90;3.47;;;;;;;;;;4871328;29;20620;-72
2022/03/09 07:52:50;;;;;;;6.77;4.13;;;;;;;;;;4919013;29;20224;-72
2022/03/09 07:55:19;;;;;;;4.67;3.57;;;;;;;;;;4894998;29;20676;-72
2022/03/09 07:57:47;;;;;;;4.23;3.60;;;;;;;;;;4916475;29;20739;-74
2022/03/09 08:00:14;;;;;;;4.00;3.57;;;;;;;;;;4922249;29;20783;-72
2022/03/09 08:02:42;;;;;;;7.97;4.13;;;;;;;;;;4902777;29;20755;-73
2022/03/09 08:05:08;;;;;;;7.00;3.70;;;;;;;;;;4883283;29;20312;-73
2022/03/09 08:07:33;;;;;;;5.57;4.80;;;;;;;;;;4876826;29;20233;-73
2022/03/09 08:10:02;;;;;;;5.53;4.00;;;;;;;;;;4916845;29;20610;-72
2022/03/09 08:12:30;;;;;;;4.43;3.60;;;;;;;;;;4898645;29;20228;-72
2022/03/09 08:14:59;;;;;;;4.87;4.17;;;;;;;;;;4885279;29;20220;-72
2022/03/09 08:17:29;;;;;;;4.70;4.00;;;;;;;;;;4919196;29;20712;-72
2022/03/09 08:19:57;;;;;;;6.03;4.00;;;;;;;;;;4897494;29;20217;-73
2022/03/09 08:22:23;;;;;;;5.00;4.47;;;;;;;;;;4903458;29;20227;-73
2022/03/09 08:24:51;;;;;;;4.90;3.60;;;;;;;;;;4870595;29;20216;-73
2022/03/09 08:27:19;;;;;;;5.07;3.57;;;;;;;;;;4925872;29;20240;-75
2022/03/09 08:29:44;;;;;;;5.13;3.27;;;;;;;;;;4922085;29;20221;-73
2022/03/09 08:32:10;;;;;;;5.13;3.67;;;;;;;;;;4895610;29;20296;-73
2022/03/09 08:34:35;;;;;;;5.33;3.70;;;;;;;;;;4890587;29;20220;-73
2022/03/09 08:37:01;;;;;;;4.40;3.87;;;;;;;;;;4890474;29;20311;-73
2022/03/09 08:39:33;;;;;;;5.20;3.50;;;;;;;;;;4925485;29;20875;-73
2022/03/09 08:42:01;;;;;;;5.50;3.80;;;;;;;;;;4893847;29;20220;-73
2022/03/09 08:44:26;;;;;;;4.70;3.90;;;;;;;;;;4907431;29;20259;-74
2022/03/09 08:46:53;;;;;;;4.40;3.57;;;;;;;;;;4886063;29;20238;-73
2022/03/09 08:49:19;;;;;;;4.20;3.37;;;;;;;;;;4893878;29;20220;-73
2022/03/09 08:51:50;;;;;;;4.20;3.57;;;;;;;;;;4903118;29;20232;-72
2022/03/09 08:54:18;;;;;;;4.00;3.47;;;;;;;;;;4906446;29;20220;-73
2022/03/09 08:56:46;;;;;;;3.93;3.53;;;;;;;;;;4918932;29;20235;-73
2022/03/09 08:59:11;;;;;;;5.27;3.63;;;;;;;;;;4916750;29;20235;-74
2022/03/09 09:01:37;;;;;;;4.80;3.67;;;;;;;;;;4905091;29;20232;-72
2022/03/09 09:04:03;;;;;;;6.37;3.90;;;;;;;;;;4898362;29;20703;-73
2022/03/09 09:06:29;;;;;;;5.47;3.97;;;;;;;;;;4878398;29;20240;-74
2022/03/09 09:08:54;;;;;;;6.20;3.87;;;;;;;;;;4916278;29;20285;-72
2022/03/09 09:11:26;;;;;;;4.83;3.73;;;;;;;;;;4916505;29;20223;-74
2022/03/09 09:13:51;;;;;;;5.70;3.57;;;;;;;;;;4907035;29;20346;-73
2022/03/09 09:16:17;;;;;;;7.13;4.07;;;;;;;;;;4879196;29;20232;-73
2022/03/09 09:18:43;;;;;;;5.43;3.90;;;;;;;;;;4879720;29;20286;-73
2022/03/09 09:21:09;;;;;;;3.73;3.30;;;;;;;;;;4884765;29;20595;-73
2022/03/09 09:23:36;;;;;;;5.30;3.73;;;;;;;;;;4901212;29;20227;-73
2022/03/09 09:26:04;;;;;;;5.00;3.80;;;;;;;;;;4899787;29;20319;-73
2022/03/09 09:28:32;;;;;;;4.37;3.70;;;;;;;;;;4916889;29;20231;-73
2022/03/09 09:31:02;;;;;;;6.20;3.40;;;;;;;;;;4882650;29;20216;-73
2022/03/09 09:33:28;;;;;;;5.83;3.63;;;;;;;;;;4895028;29;20289;-73
2022/03/09 09:36:00;;;;;;;5.50;4.00;;;;;;;;;;4917037;29;20222;-72
2022/03/09 09:38:27;;;;;;;8.70;4.30;;;;;;;;;;4901756;29;20243;-75
2022/03/09 09:40:55;;;;;;;5.93;4.20;;;;;;;;;;4895487;29;20228;-72
2022/03/09 09:43:21;;;;;;;5.43;3.60;;;;;;;;;;4891935;29;20315;-72
2022/03/09 09:45:49;;;;;;;5.63;4.00;;;;;;;;;;4895844;29;20273;-73
2022/03/09 09:48:19;;;;;;;4.70;3.80;;;;;;;;;;4895462;29;20223;-73
2022/03/09 09:50:45;;;;;;;5.23;3.93;;;;;;;;;;4888534;29;20224;-73
2022/03/09 09:53:12;;;;;;;4.60;3.63;;;;;;;;;;4910098;29;20219;-72
2022/03/09 09:55:41;;;;;;;4.20;3.80;;;;;;;;;;4903034;29;20243;-73
2022/03/09 09:58:07;;;;;;;6.17;4.00;;;;;;;;;;4869976;29;20232;-73
2022/03/09 10:00:35;;;;;;;4.80;3.73;;;;;;;;;;4887701;29;20228;-74
2022/03/09 10:03:06;;;;;;;5.23;4.03;;;;;;;;;;4902868;29;20228;-71
2022/03/09 10:05:32;;;;;;;6.97;4.00;;;;;;;;;;4876929;29;20708;-72
2022/03/09 10:08:04;;;;;;;4.87;4.10;;;;;;;;;;4900652;29;20274;-73
2022/03/09 10:10:41;;;;;;;6.33;3.97;;;;;;;;;;4918095;29;20327;-74
2022/03/09 10:13:19;;;;;;;4.47;3.70;;;;;;;;;;4896248;29;20233;-75
2022/03/09 10:15:46;;;;;;;5.23;3.67;;;;;;;;;;4894887;29;20766;-74
2022/03/09 10:18:24;;;;;;;5.20;3.73;;;;;;;;;;4881242;29;20759;-74
2022/03/09 10:20:52;;;;;;;5.40;4.00;;;;;;;;;;4907283;29;20232;-74
2022/03/09 10:23:21;;;;;;;5.37;4.20;;;;;;;;;;4916914;29;20263;-75
2022/03/09 10:25:47;;;;;;;4.70;4.00;;;;;;;;;;4876695;29;20233;-73
2022/03/09 10:28:13;;;;;;;6.40;3.77;;;;;;;;;;4898211;29;20228;-74
2022/03/09 10:30:40;;;;;;;5.17;3.60;;;;;;;;;;4900246;29;20692;-73
2022/03/09 10:33:13;;;;;;;5.37;4.00;;;;;;;;;;4868838;29;20231;-74
2022/03/09 10:35:41;;;;;;;4.10;3.70;;;;;;;;;;4883298;29;20650;-75
2022/03/09 10:38:21;;;;;;;4.70;3.83;;;;;;;;;;4878048;29;20240;-75
2022/03/09 10:40:51;;;;;;;4.90;3.90;;;;;;;;;;4878271;29;20244;-74
2022/03/09 10:43:20;;;;;;;4.20;3.53;;;;;;;;;;4899453;29;20228;-75
2022/03/09 10:46:05;;;;;;;3.70;3.40;;;;;;;;;;4892301;29;20247;-77
2022/03/09 10:48:46;;;;;;;3.93;3.40;;;;;;;;;;4896634;29;20233;-74
2022/03/09 10:51:12;;;;;;;4.27;3.70;;;;;;;;;;4914836;29;20227;-74
2022/03/09 10:53:45;;;;;;;6.27;3.67;;;;;;;;;;4876138;29;20232;-74
2022/03/09 10:56:19;;;;;;;4.27;3.63;;;;;;;;;;4917188;29;20790;-75
2022/03/09 10:58:44;;;;;;;3.90;3.50;;;;;;;;;;4878427;29;20244;-74
2022/03/09 11:01:14;;;;;;;4.10;3.70;;;;;;;;;;4882119;29;20228;-74
2022/03/09 11:03:43;;;;;;;4.30;3.90;;;;;;;;;;4874300;29;20323;-74
2022/03/09 11:06:11;;;;;;;5.37;3.50;;;;;;;;;;4905122;29;20786;-76
2022/03/09 11:08:44;;;;;;;4.87;3.67;;;;;;;;;;4915224;29;20232;-76
2022/03/09 11:11:31;;;;;;;4.30;3.90;;;;;;;;;;4876906;29;20231;-76
2022/03/09 11:14:06;;;;;;;5.33;3.93;;;;;;;;;;4899950;29;20227;-75
2022/03/09 11:16:46;;;;;;;4.80;3.87;;;;;;;;;;4883416;29;20611;-74
2022/03/09 11:19:15;;;;;;;5.60;4.40;;;;;;;;;;4895233;29;20715;-76
2022/03/09 11:21:41;;;;;;;5.43;4.20;;;;;;;;;;4894185;29;20802;-74
2022/03/09 11:24:20;;;;;;;5.40;4.10;;;;;;;;;;4893725;29;20681;-75
2022/03/09 11:26:53;;;;;;;5.50;3.90;;;;;;;;;;4917852;29;20246;-75
2022/03/09 11:29:34;;;;;;;5.70;4.73;;;;;;;;;;4898491;29;20230;-75
2022/03/09 11:32:01;;;;;;;5.63;4.97;;;;;;;;;;4889453;29;20315;-74
2022/03/09 11:34:37;;;;;;;5.53;4.70;;;;;;;;;;4870689;29;20228;-74
2022/03/09 11:37:11;;;;;;;4.93;4.50;;;;;;;;;;4867521;29;20220;-74
2022/03/09 11:40:01;;;;;;;5.87;5.00;;;;;;;;;;4915955;29;20255;-74
2022/03/09 11:42:28;;;;;;;5.33;4.60;;;;;;;;;;4898488;29;20235;-74
2022/03/09 11:45:20;;;;;;;5.07;4.07;;;;;;;;;;4897146;29;20605;-75
2022/03/09 11:48:03;;;;;;;4.40;3.83;;;;;;;;;;4914319;29;20315;-74
2022/03/09 11:50:33;;;;;;;4.60;3.80;;;;;;;;;;4907431;29;20235;-74
2022/03/09 11:53:26;;;;;;;4.40;3.97;;;;;;;;;;4904807;29;20224;-75
2022/03/09 11:56:23;;;;;;;4.80;3.77;;;;;;;;;;4913829;29;20605;-75
2022/03/09 11:59:17;;;;;;;4.87;3.33;;;;;;;;;;4896747;29;20309;-73
2022/03/09 12:01:57;;;;;;;4.90;3.73;;;;;;;;;;4914350;29;20261;-74
2022/03/09 12:04:42;;;;;;;4.23;3.83;;;;;;;;;;4898114;29;20224;-74
2022/03/09 12:07:09;;;;;;;4.10;3.70;;;;;;;;;;4913793;29;20228;-74
2022/03/09 12:10:03;;;;;;;4.43;3.60;;;;;;;;;;4913994;29;20232;-74
2022/03/09 12:12:33;;;;;;;4.20;3.80;;;;;;;;;;4907042;29;20240;-77
2022/03/09 12:15:16;;;;;;;4.00;3.60;;;;;;;;;;4902950;29;20232;-75
2022/03/09 12:17:48;;;;;;;4.50;3.40;;;;;;;;;;4917194;29;20223;-74
2022/03/09 12:20:29;;;;;;;5.47;3.83;;;;;;;;;;4884758;29;20242;-75
2022/03/09 12:22:55;;;;;;;4.23;3.70;;;;;;;;;;4911065;29;20232;-74
2022/03/09 12:25:39;;;;;;;4.43;4.03;;;;;;;;;;4909765;29;20235;-73
2022/03/09 12:28:27;;;;;;;6.33;4.10;;;;;;;;;;4897910;29;20235;-75
2022/03/09 12:30:56;;;;;;;5.23;4.13;;;;;;;;;;4916806;29;20238;-75
2022/03/09 12:33:28;;;;;;;4.30;3.90;;;;;;;;;;4901545;29;20229;-74
2022/03/09 12:36:03;;;;;;;5.03;4.13;;;;;;;;;;4902165;29;20355;-74
2022/03/09 12:38:35;;;;;;;4.20;3.80;;;;;;;;;;4879319;29;20228;-74
2022/03/09 12:41:03;;;;;;;5.03;4.43;;;;;;;;;;4879605;29;20609;-73
2022/03/09 12:43:51;;;;;;;5.55;4.30;;;;;;;;;;4877043;29;20220;-73
2022/03/09 12:46:16;;;;;;;4.97;4.25;;;;;;;;;;4890475;29;20271;-75
2022/03/09 12:48:42;;;;;;;4.90;4.40;;;;;;;;;;4913124;29;20235;-73
2022/03/09 12:51:08;;;;;;;5.33;4.53;;;;;;;;;;4914041;29;20235;-75
2022/03/09 12:53:33;;;;;;;5.00;4.50;;;;;;;;;;4882729;29;20232;-74
2022/03/09 12:56:21;;;;;;;5.32;4.82;;;;;;;;;;4896894;29;20296;-74
2022/03/09 12:58:46;;;;;;;5.10;4.60;;;;;;;;;;4911553;29;20248;-73
2022/03/09 13:01:15;;;;;;;4.83;4.33;;;;;;;;;;4896124;29;20291;-74
2022/03/09 13:03:41;;;;;;;5.10;4.53;;;;;;;;;;4897893;29;20215;-73
2022/03/09 13:06:21;;;;;;;4.80;4.40;;;;;;;;;;4871576;29;20252;-74
2022/03/09 13:08:46;;;;;;;5.47;4.93;;;;;;;;;;4903955;29;20255;-73
2022/03/09 13:11:12;;;;;;;5.18;4.68;;;;;;;;;;4894906;29;20260;-74
2022/03/09 13:13:39;;;;;;;5.20;4.70;;;;;;;;;;4912349;29;20231;-74
2022/03/09 13:16:05;;;;;;;5.40;4.90;;;;;;;;;;4912609;29;20236;-74
2022/03/09 13:18:32;;;;;;;5.28;4.68;;;;;;;;;;4901077;29;20853;-73
2022/03/09 13:20:58;;;;;;;7.82;5.20;;;;;;;;;;4879304;29;20232;-74
2022/03/09 13:23:42;;;;;;;5.63;4.97;;;;;;;;;;4916281;29;20708;-74
2022/03/09 13:26:21;;;;;;;6.28;4.82;;;;;;;;;;4908750;29;20236;-73
2022/03/09 13:28:51;;;;;;;5.13;4.60;;;;;;;;;;4902948;29;20251;-73
2022/03/09 13:31:19;;;;;;;5.87;5.00;;;;;;;;;;4904684;29;20224;-75
2022/03/09 13:33:48;;;;;;;6.20;4.97;;;;;;;;;;4892983;29;20224;-74
2022/03/09 13:36:18;;;;;;;5.07;4.40;;;;;;;;;;4892365;29;20295;-74
2022/03/09 13:38:57;;;;;;;5.23;4.60;;;;;;;;;;4899347;29;20263;-75
2022/03/09 13:41:26;;;;;;;4.87;4.37;;;;;;;;;;4901201;29;20220;-76
2022/03/09 13:43:54;;;;;;;5.47;4.43;;;;;;;;;;4897538;29;20224;-73
2022/03/09 13:46:22;;;;;;;5.78;4.50;;;;;;;;;;4895532;29;20247;-73
2022/03/09 13:49:11;;;;;;;5.70;4.20;;;;;;;;;;4886753;29;20225;-74
2022/03/09 13:51:41;;;;;;;5.70;4.70;;;;;;;;;;4849854;29;20228;-74
2022/03/09 13:54:09;;;;;;;5.43;4.30;;;;;;;;;;4894985;29;20256;-74
2022/03/09 13:56:35;;;;;;;4.85;4.35;;;;;;;;;;4904620;29;20319;-74
2022/03/09 13:59:01;;;;;;;5.53;4.53;;;;;;;;;;4910435;29;20314;-74
2022/03/09 14:01:30;;;;;;;5.07;4.47;;;;;;;;;;4900089;29;20286;-74
2022/03/09 14:04:01;;;;;;;4.80;4.40;;;;;;;;;;4902001;29;20274;-74
2022/03/09 14:06:28;;;;;;;6.13;4.70;;;;;;;;;;4889446;29;20232;-74
2022/03/09 14:08:55;;;;;;;4.60;4.20;;;;;;;;;;4917586;29;20231;-74
2022/03/09 14:11:22;;;;;;;4.80;4.40;;;;;;;;;;4915970;29;20220;-75
2022/03/09 14:14:04;;;;;;;5.30;4.80;;;;;;;;;;4901758;29;20220;-74
2022/03/09 14:16:33;;;;;;;5.03;4.57;;;;;;;;;;4916083;29;20236;-74
2022/03/09 14:19:04;;;;;;;5.60;4.70;;;;;;;;;;4916969;29;20231;-73
2022/03/09 14:21:32;;;;;;;4.75;4.25;;;;;;;;;;4915072;29;20228;-73
2022/03/09 14:24:06;;;;;;;5.05;4.53;;;;;;;;;;4876886;29;20235;-75
2022/03/09 14:26:39;;;;;;;5.60;5.00;;;;;;;;;;4888050;29;20284;-74
2022/03/09 14:29:07;;;;;;;4.97;4.53;;;;;;;;;;4882482;29;20220;-74
2022/03/09 14:31:34;;;;;;;5.43;4.63;;;;;;;;;;4910276;29;20235;-75
2022/03/09 14:34:00;;;;;;;7.22;4.82;;;;;;;;;;4916882;29;20220;-73
2022/03/09 14:36:25;;;;;;;5.30;4.47;;;;;;;;;;4895829;29;20730;-73
2022/03/09 14:38:52;;;;;;;5.73;4.53;;;;;;;;;;4884043;29;20228;-73
2022/03/09 14:41:20;;;;;;;5.38;4.35;;;;;;;;;;4883835;29;20720;-75
2022/03/09 14:43:51;;;;;;;4.87;4.47;;;;;;;;;;4899848;29;20220;-73
2022/03/09 14:46:20;;;;;;;5.57;4.43;;;;;;;;;;4877800;29;20570;-74
2022/03/09 14:48:49;;;;;;;6.10;4.70;;;;;;;;;;4896622;29;20227;-75
2022/03/09 14:51:14;;;;;;;5.90;4.60;;;;;;;;;;4894773;29;20220;-74
2022/03/09 14:54:03;;;;;;;5.97;4.20;;;;;;;;;;4876178;29;20239;-77
2022/03/09 14:56:43;;;;;;;7.80;4.60;;;;;;;;;;4889560;29;20239;-73